Time;durP1;ratioP1;P1;durP2;ratioP2;P2;SDS_P1;SDS_P2;PMS_P1;PMS_P2;Temp;Humidity;BMP_temperature;BMP_pressure;BME280_temperature;BME280_humidity;BME280_pressure;Samples;Min_cycle;Max_cycle;Signal;HPM_P1;HPM_P2
2022/01/23 00:00:51;;;;;;;6.60;3.70;;;;;;;;;;5089794;28;20030;-74
2022/01/23 00:03:18;;;;;;;7.43;3.70;;;;;;;;;;5090293;28;20123;-73
2022/01/23 00:05:49;;;;;;;7.30;3.90;;;;;;;;;;5088641;28;20028;-72
2022/01/23 00:08:19;;;;;;;6.73;3.90;;;;;;;;;;5089934;28;20023;-73
2022/01/23 00:10:45;;;;;;;8.60;4.33;;;;;;;;;;5090306;28;20020;-73
2022/01/23 00:18:22;;;;;;;8.53;4.50;;;;;;;;;;5090134;28;20563;-75
2022/01/23 00:20:49;;;;;;;10.13;5.37;;;;;;;;;;5088296;28;20035;-74
2022/01/23 00:23:28;;;;;;;9.37;4.50;;;;;;;;;;5089736;28;20093;-73
2022/01/23 00:31:25;;;;;;;8.93;5.17;;;;;;;;;;5089659;28;20266;-73
2022/01/23 00:33:54;;;;;;;9.20;5.40;;;;;;;;;;5089790;28;20075;-72
2022/01/23 00:36:20;;;;;;;10.53;5.27;;;;;;;;;;5088236;28;20051;-73
2022/01/23 00:38:45;;;;;;;10.90;5.00;;;;;;;;;;5088160;28;20393;-73
2022/01/23 00:41:11;;;;;;;10.57;5.47;;;;;;;;;;5089622;28;20031;-73
2022/01/23 00:43:40;;;;;;;9.50;5.73;;;;;;;;;;5089463;28;20059;-74
2022/01/23 00:48:38;;;;;;;12.23;5.80;;;;;;;;;;5089884;28;20055;-74
2022/01/23 00:51:03;;;;;;;10.40;5.60;;;;;;;;;;5090036;28;20062;-72
2022/01/23 00:53:29;;;;;;;14.23;6.17;;;;;;;;;;5089577;28;20032;-76
2022/01/23 00:55:55;;;;;;;10.60;5.17;;;;;;;;;;5089102;28;20475;-73
2022/01/23 00:58:20;;;;;;;8.33;4.60;;;;;;;;;;5088180;28;20063;-73
2022/01/23 01:00:46;;;;;;;9.33;4.50;;;;;;;;;;5089321;28;20020;-73
2022/01/23 01:03:11;;;;;;;8.63;4.90;;;;;;;;;;5088993;28;20035;-73
2022/01/23 01:05:37;;;;;;;11.30;5.80;;;;;;;;;;5087789;28;20036;-73
2022/01/23 01:08:05;;;;;;;7.80;4.23;;;;;;;;;;5088785;28;20042;-73
2022/01/23 01:10:42;;;;;;;11.00;5.10;;;;;;;;;;5089196;28;20055;-73
2022/01/23 01:13:11;;;;;;;8.00;4.50;;;;;;;;;;5092229;28;20057;-73
2022/01/23 01:31:37;;;;;;;15.97;7.50;;;;;;;;;;5093192;28;20094;-73
2022/01/23 01:34:41;;;;;;;12.63;6.83;;;;;;;;;;5091289;28;20028;-73
2022/01/23 01:36:56;;;;;;;13.02;7.88;;;;;;;;;;5092301;28;20048;-72
2022/01/23 01:39:25;;;;;;;15.13;7.07;;;;;;;;;;5092642;28;20103;-74
2022/01/23 01:41:52;;;;;;;12.43;7.13;;;;;;;;;;5092727;28;20032;-73
2022/01/23 01:44:19;;;;;;;15.63;8.17;;;;;;;;;;5091116;28;20035;-73
2022/01/23 01:46:45;;;;;;;15.03;7.50;;;;;;;;;;5092747;28;20028;-74
2022/01/23 01:49:11;;;;;;;11.67;6.53;;;;;;;;;;5091057;28;20077;-73
2022/01/23 01:51:37;;;;;;;14.73;8.13;;;;;;;;;;5092694;28;20111;-73
2022/01/23 01:54:10;;;;;;;17.73;7.70;;;;;;;;;;5092421;28;20088;-73
2022/01/23 01:56:47;;;;;;;15.27;7.83;;;;;;;;;;5092765;28;20027;-72
2022/01/23 01:59:47;;;;;;;16.33;7.17;;;;;;;;;;5092263;28;20135;-73
2022/01/23 02:09:56;;;;;;;14.30;8.17;;;;;;;;;;5080368;28;20089;-73
2022/01/23 02:53:29;;;;;;;13.80;7.53;;;;;;;;;;5091319;28;20158;-73
2022/01/23 02:55:56;;;;;;;14.13;8.07;;;;;;;;;;5089831;28;20368;-72
2022/01/23 02:58:24;;;;;;;12.87;7.20;;;;;;;;;;5089454;28;20468;-73
2022/01/23 03:03:28;;;;;;;14.50;7.47;;;;;;;;;;5091364;28;20111;-73
2022/01/23 03:06:20;;;;;;;14.80;7.20;;;;;;;;;;5091087;28;20127;-73
2022/01/23 03:30:25;;;;;;;12.90;6.47;;;;;;;;;;5090936;28;20417;-73
2022/01/23 03:32:52;;;;;;;12.73;7.07;;;;;;;;;;5089408;28;20054;-74
2022/01/23 03:35:20;;;;;;;13.20;6.33;;;;;;;;;;5089682;28;20032;-74
2022/01/23 03:37:46;;;;;;;15.30;6.70;;;;;;;;;;5090493;28;20051;-73
2022/01/23 03:40:12;;;;;;;11.87;6.60;;;;;;;;;;5088703;28;20111;-73
2022/01/23 03:42:41;;;;;;;13.23;6.60;;;;;;;;;;5090347;28;20468;-73
2022/01/23 03:47:53;;;;;;;14.33;6.83;;;;;;;;;;5090575;28;20395;-73
2022/01/23 03:50:19;;;;;;;13.83;5.93;;;;;;;;;;5088679;28;20030;-72
2022/01/23 03:52:44;;;;;;;12.13;6.23;;;;;;;;;;5088526;28;20023;-74
2022/01/23 03:55:11;;;;;;;15.83;6.43;;;;;;;;;;5089808;28;20055;-73
2022/01/23 03:57:37;;;;;;;16.13;7.13;;;;;;;;;;5090242;28;20058;-74
2022/01/23 04:00:06;;;;;;;10.87;5.70;;;;;;;;;;5090096;28;20020;-73
2022/01/23 04:02:32;;;;;;;10.43;5.27;;;;;;;;;;5088938;28;20157;-72
2022/01/23 04:04:57;;;;;;;11.83;6.10;;;;;;;;;;5089967;28;20039;-73
2022/01/23 04:07:27;;;;;;;13.27;5.67;;;;;;;;;;5089158;28;20035;-74
2022/01/23 04:09:53;;;;;;;11.97;6.30;;;;;;;;;;5091077;28;20023;-72
2022/01/23 04:13:12;;;;;;;9.33;5.10;;;;;;;;;;5088742;28;20035;-73
2022/01/23 04:20:35;;;;;;;11.53;5.60;;;;;;;;;;5089936;28;20503;-73
2022/01/23 05:00:34;;;;;;;8.07;5.03;;;;;;;;;;5093345;28;20534;-73
2022/01/23 05:03:49;;;;;;;10.27;4.70;;;;;;;;;;5092119;28;20459;-74
2022/01/23 05:05:59;;;;;;;8.03;4.40;;;;;;;;;;5093092;28;20032;-74
2022/01/23 05:08:27;;;;;;;6.77;3.60;;;;;;;;;;5091766;28;20076;-74
2022/01/23 05:10:54;;;;;;;7.63;4.53;;;;;;;;;;5092014;28;20012;-73
2022/01/23 05:13:19;;;;;;;7.17;3.90;;;;;;;;;;5091457;28;20499;-74
2022/01/23 05:15:45;;;;;;;9.10;4.90;;;;;;;;;;5091661;28;20047;-73
2022/01/23 05:18:11;;;;;;;10.23;4.50;;;;;;;;;;5091411;28;20027;-73
2022/01/23 05:20:38;;;;;;;7.20;3.90;;;;;;;;;;5091715;28;20028;-73
2022/01/23 05:23:05;;;;;;;7.40;4.57;;;;;;;;;;5091660;28;20022;-73
2022/01/23 05:25:34;;;;;;;7.17;4.13;;;;;;;;;;5091353;28;20031;-74
2022/01/23 05:27:59;;;;;;;7.83;4.60;;;;;;;;;;5093113;28;20428;-74
2022/01/23 05:30:25;;;;;;;6.77;4.50;;;;;;;;;;5092589;28;20126;-73
2022/01/23 05:32:52;;;;;;;6.70;3.87;;;;;;;;;;5091496;28;20525;-74
2022/01/23 05:35:19;;;;;;;7.77;4.40;;;;;;;;;;5091087;28;20028;-74
2022/01/23 05:37:45;;;;;;;4.53;3.27;;;;;;;;;;5092754;28;20020;-73
2022/01/23 05:40:14;;;;;;;5.00;3.03;;;;;;;;;;5092490;28;20107;-74
2022/01/23 05:42:39;;;;;;;3.17;2.87;;;;;;;;;;5091396;28;20078;-74
2022/01/23 05:45:06;;;;;;;6.27;3.43;;;;;;;;;;5092619;28;20024;-73
2022/01/23 05:47:31;;;;;;;7.07;3.50;;;;;;;;;;5090849;28;20040;-74
2022/01/23 05:49:57;;;;;;;5.20;3.40;;;;;;;;;;5092448;28;20021;-73
2022/01/23 05:52:22;;;;;;;5.03;2.90;;;;;;;;;;5090896;28;20431;-74
2022/01/23 05:54:48;;;;;;;5.20;3.37;;;;;;;;;;5091065;28;20040;-73
2022/01/23 05:57:13;;;;;;;6.10;3.53;;;;;;;;;;5090326;28;20441;-73
2022/01/23 05:59:39;;;;;;;5.43;2.77;;;;;;;;;;5090858;28;20154;-73
2022/01/23 06:02:04;;;;;;;4.23;2.83;;;;;;;;;;5092370;28;20035;-74
2022/01/23 06:04:30;;;;;;;4.63;2.70;;;;;;;;;;5092088;28;20059;-73
2022/01/23 06:06:57;;;;;;;4.03;2.70;;;;;;;;;;5090781;28;20022;-74
2022/01/23 06:09:24;;;;;;;4.87;3.40;;;;;;;;;;5090227;28;20073;-74
2022/01/23 06:11:50;;;;;;;6.83;3.40;;;;;;;;;;5090768;28;20027;-74
2022/01/23 06:14:16;;;;;;;5.97;3.20;;;;;;;;;;5092558;28;20464;-72
2022/01/23 06:16:42;;;;;;;7.07;3.27;;;;;;;;;;5092524;28;20024;-73
2022/01/23 06:19:08;;;;;;;7.20;3.53;;;;;;;;;;5090951;28;20566;-74
2022/01/23 06:21:33;;;;;;;4.80;2.80;;;;;;;;;;5094063;28;20332;-73
2022/01/23 06:24:06;;;;;;;5.43;2.90;;;;;;;;;;5094406;28;20448;-74
2022/01/23 06:26:43;;;;;;;7.10;3.50;;;;;;;;;;5092259;28;20023;-73
2022/01/23 06:29:09;;;;;;;8.57;3.87;;;;;;;;;;5090315;28;20016;-73
2022/01/23 06:31:35;;;;;;;5.07;3.77;;;;;;;;;;5090145;28;20430;-74
2022/01/23 06:34:01;;;;;;;7.77;3.90;;;;;;;;;;5090062;28;20028;-73
2022/01/23 06:36:27;;;;;;;7.00;4.10;;;;;;;;;;5089651;28;20055;-74
2022/01/23 06:38:53;;;;;;;7.37;4.20;;;;;;;;;;5091998;28;20031;-73
2022/01/23 06:41:18;;;;;;;6.90;3.97;;;;;;;;;;5089951;28;20085;-72
2022/01/23 06:43:44;;;;;;;7.20;3.70;;;;;;;;;;5091727;28;20024;-73
2022/01/23 06:46:09;;;;;;;6.07;3.47;;;;;;;;;;5089960;28;20024;-74
2022/01/23 06:48:35;;;;;;;8.30;4.07;;;;;;;;;;5089745;28;20051;-75
2022/01/23 06:51:00;;;;;;;5.47;3.43;;;;;;;;;;5089859;28;20024;-73
2022/01/23 06:53:26;;;;;;;6.63;3.40;;;;;;;;;;5091085;28;20102;-73
2022/01/23 06:55:51;;;;;;;6.70;4.07;;;;;;;;;;5091018;28;20059;-73
2022/01/23 06:58:17;;;;;;;5.67;3.47;;;;;;;;;;5089483;28;20400;-73
2022/01/23 07:00:42;;;;;;;7.17;4.20;;;;;;;;;;5089640;28;20031;-74
2022/01/23 07:03:10;;;;;;;5.97;3.93;;;;;;;;;;5089451;28;20084;-74
2022/01/23 07:05:35;;;;;;;6.93;4.30;;;;;;;;;;5090757;28;20106;-73
2022/01/23 07:08:01;;;;;;;6.93;3.93;;;;;;;;;;5091070;28;20150;-73
2022/01/23 07:10:27;;;;;;;5.83;3.53;;;;;;;;;;5089704;28;20027;-72
2022/01/23 07:12:52;;;;;;;5.63;3.50;;;;;;;;;;5089505;28;20468;-73
2022/01/23 07:15:18;;;;;;;5.83;3.60;;;;;;;;;;5089297;28;20489;-74
2022/01/23 07:17:44;;;;;;;7.77;3.70;;;;;;;;;;5089272;28;20417;-74
2022/01/23 07:20:10;;;;;;;6.07;3.70;;;;;;;;;;5090671;28;20063;-72
2022/01/23 07:22:36;;;;;;;6.77;3.80;;;;;;;;;;5089066;28;20121;-74
2022/01/23 07:25:05;;;;;;;18.77;11.53;;;;;;;;;;5090622;28;20046;-74
2022/01/23 07:27:36;;;;;;;8.20;4.20;;;;;;;;;;5090202;28;20466;-73
2022/01/23 07:30:05;;;;;;;5.37;3.60;;;;;;;;;;5090661;28;20016;-74
2022/01/23 07:32:31;;;;;;;8.03;3.47;;;;;;;;;;5090369;28;20027;-74
2022/01/23 07:34:57;;;;;;;7.10;4.00;;;;;;;;;;5089125;28;20024;-73
2022/01/23 07:37:23;;;;;;;8.73;3.97;;;;;;;;;;5088306;28;20048;-73
2022/01/23 07:39:48;;;;;;;7.00;4.20;;;;;;;;;;5090267;28;20027;-75
2022/01/23 07:42:14;;;;;;;6.07;3.70;;;;;;;;;;5089049;28;20027;-75
2022/01/23 07:44:39;;;;;;;8.00;3.60;;;;;;;;;;5090228;28;20121;-74
2022/01/23 07:47:06;;;;;;;7.87;4.23;;;;;;;;;;5090530;28;20111;-74
2022/01/23 07:49:32;;;;;;;7.47;3.87;;;;;;;;;;5088660;28;20220;-74
2022/01/23 07:51:59;;;;;;;6.70;4.27;;;;;;;;;;5090178;28;20081;-74
2022/01/23 07:54:25;;;;;;;8.10;4.27;;;;;;;;;;5088734;28;20032;-75
2022/01/23 07:56:50;;;;;;;7.83;4.37;;;;;;;;;;5072491;28;20050;-74
2022/01/23 07:59:16;;;;;;;6.17;3.67;;;;;;;;;;5089400;28;20153;-75
2022/01/23 08:01:41;;;;;;;6.00;3.63;;;;;;;;;;5091495;28;20035;-74
2022/01/23 08:04:07;;;;;;;9.77;3.83;;;;;;;;;;5089471;28;20027;-74
2022/01/23 08:06:40;;;;;;;6.90;4.33;;;;;;;;;;5088540;28;20054;-73
2022/01/23 08:09:05;;;;;;;8.37;4.30;;;;;;;;;;5089161;28;20036;-74
2022/01/23 08:11:31;;;;;;;6.43;3.70;;;;;;;;;;5090157;28;20039;-74
2022/01/23 08:13:56;;;;;;;5.93;3.57;;;;;;;;;;5088605;28;20066;-74
2022/01/23 08:16:22;;;;;;;5.30;3.53;;;;;;;;;;5089720;28;20032;-74
2022/01/23 08:18:48;;;;;;;9.23;4.27;;;;;;;;;;5088560;28;20039;-72
2022/01/23 08:21:14;;;;;;;7.30;3.73;;;;;;;;;;5071624;28;20464;-74
2022/01/23 08:23:40;;;;;;;7.30;3.93;;;;;;;;;;5090284;28;20059;-73
2022/01/23 08:26:07;;;;;;;7.97;4.27;;;;;;;;;;5088564;28;20483;-74
2022/01/23 08:28:32;;;;;;;14.10;7.10;;;;;;;;;;5071376;28;20061;-74
2022/01/23 08:30:58;;;;;;;5.17;3.87;;;;;;;;;;5089368;28;20150;-74
2022/01/23 08:33:25;;;;;;;7.13;3.90;;;;;;;;;;5087631;28;20040;-74
2022/01/23 08:35:53;;;;;;;6.70;3.43;;;;;;;;;;5088025;28;20066;-73
2022/01/23 08:38:19;;;;;;;7.37;3.73;;;;;;;;;;5089305;28;20039;-74
2022/01/23 08:40:58;;;;;;;6.63;4.17;;;;;;;;;;5087778;28;20082;-74
2022/01/23 08:43:24;;;;;;;8.57;4.50;;;;;;;;;;5087858;28;20096;-74
2022/01/23 08:45:52;;;;;;;7.13;4.03;;;;;;;;;;5089266;28;20034;-72
2022/01/23 08:48:18;;;;;;;6.07;3.80;;;;;;;;;;5088248;28;20059;-73
2022/01/23 08:50:43;;;;;;;5.40;3.33;;;;;;;;;;5089788;28;20472;-74
2022/01/23 08:53:09;;;;;;;9.37;4.30;;;;;;;;;;5074672;28;20039;-75
2022/01/23 08:55:36;;;;;;;9.60;4.60;;;;;;;;;;5053595;28;20055;-74
2022/01/23 08:58:01;;;;;;;7.83;4.63;;;;;;;;;;5055862;28;20360;-73
2022/01/23 09:00:30;;;;;;;14.73;6.80;;;;;;;;;;5058109;28;20159;-74
2022/01/23 09:02:56;;;;;;;9.20;4.63;;;;;;;;;;5055205;28;20102;-75
2022/01/23 09:05:23;;;;;;;9.03;5.00;;;;;;;;;;5055557;28;20025;-75
2022/01/23 09:07:48;;;;;;;9.03;4.80;;;;;;;;;;5058442;28;20043;-75
2022/01/23 09:10:15;;;;;;;6.37;3.90;;;;;;;;;;5051883;28;20032;-74
2022/01/23 09:12:54;;;;;;;9.77;4.50;;;;;;;;;;5074843;28;20544;-74
2022/01/23 09:15:20;;;;;;;8.60;4.63;;;;;;;;;;5059328;28;20056;-75
2022/01/23 09:17:45;;;;;;;6.87;4.30;;;;;;;;;;5058575;28;20076;-73
2022/01/23 09:20:11;;;;;;;6.47;4.03;;;;;;;;;;5068954;28;20108;-74
2022/01/23 09:22:36;;;;;;;10.87;4.13;;;;;;;;;;5067935;28;20483;-73
2022/01/23 09:25:02;;;;;;;8.20;4.57;;;;;;;;;;5068974;28;20033;-72
2022/01/23 09:27:29;;;;;;;9.07;4.37;;;;;;;;;;5067955;28;20512;-74
2022/01/23 09:29:56;;;;;;;6.23;3.87;;;;;;;;;;5068968;28;20032;-75
2022/01/23 09:32:23;;;;;;;8.83;4.53;;;;;;;;;;5067719;28;20029;-74
2022/01/23 09:34:51;;;;;;;7.97;4.43;;;;;;;;;;5071312;28;20028;-73
2022/01/23 09:37:18;;;;;;;7.97;4.63;;;;;;;;;;5071275;28;20511;-74
2022/01/23 09:39:50;;;;;;;8.43;4.30;;;;;;;;;;5072170;28;20028;-74
2022/01/23 09:42:21;;;;;;;10.00;4.88;;;;;;;;;;5070928;28;20047;-74
2022/01/23 09:44:51;;;;;;;8.23;4.40;;;;;;;;;;5072021;28;20039;-74
2022/01/23 09:47:19;;;;;;;10.90;4.17;;;;;;;;;;5072232;28;20031;-74
2022/01/23 09:49:45;;;;;;;12.20;5.13;;;;;;;;;;5070712;28;20468;-74
2022/01/23 09:52:12;;;;;;;13.77;6.13;;;;;;;;;;5070913;28;20029;-73
2022/01/23 09:54:40;;;;;;;9.50;4.90;;;;;;;;;;5072091;28;20194;-74
2022/01/23 09:57:08;;;;;;;8.50;4.17;;;;;;;;;;5070423;28;20038;-74
2022/01/23 09:59:34;;;;;;;8.40;4.53;;;;;;;;;;5071548;28;20552;-73
2022/01/23 10:02:01;;;;;;;8.33;4.40;;;;;;;;;;5071874;28;20038;-72
2022/01/23 10:04:27;;;;;;;8.93;4.93;;;;;;;;;;5070494;28;20116;-74
2022/01/23 10:06:53;;;;;;;8.77;4.73;;;;;;;;;;5070587;28;20107;-73
2022/01/23 10:09:25;;;;;;;6.63;4.33;;;;;;;;;;5070734;28;20051;-73
2022/01/23 10:11:51;;;;;;;6.35;4.10;;;;;;;;;;5070451;28;20020;-74
2022/01/23 10:14:18;;;;;;;7.43;4.77;;;;;;;;;;5070508;28;20510;-73
2022/01/23 10:16:46;;;;;;;7.63;3.70;;;;;;;;;;5071581;28;20027;-74
2022/01/23 10:19:13;;;;;;;6.93;3.57;;;;;;;;;;5053689;28;20384;-74
2022/01/23 10:21:39;;;;;;;6.60;3.60;;;;;;;;;;5071670;28;20029;-73
2022/01/23 10:24:06;;;;;;;5.30;3.53;;;;;;;;;;5053450;28;20085;-74
2022/01/23 10:26:51;;;;;;;8.07;3.50;;;;;;;;;;5070077;28;20017;-74
2022/01/23 10:29:32;;;;;;;3.77;2.90;;;;;;;;;;5070078;28;20373;-74
2022/01/23 10:32:24;;;;;;;4.00;2.73;;;;;;;;;;5071546;28;20047;-74
2022/01/23 10:34:55;;;;;;;4.37;2.33;;;;;;;;;;5071145;28;20036;-74
2022/01/23 10:37:41;;;;;;;4.28;2.83;;;;;;;;;;5071156;28;20055;-74
2022/01/23 10:40:10;;;;;;;3.57;2.50;;;;;;;;;;5069959;28;20036;-74
2022/01/23 10:48:35;;;;;;;3.77;2.53;;;;;;;;;;5072169;28;20035;-74
2022/01/23 10:51:23;;;;;;;6.03;3.30;;;;;;;;;;5072534;28;20499;-74
2022/01/23 10:53:57;;;;;;;9.37;4.30;;;;;;;;;;5069360;28;20035;-74
2022/01/23 10:56:24;;;;;;;6.47;3.90;;;;;;;;;;5069667;28;20042;-74
2022/01/23 10:59:17;;;;;;;7.13;3.77;;;;;;;;;;5070506;28;20028;-74
2022/01/23 11:02:01;;;;;;;7.13;4.33;;;;;;;;;;5066426;28;20142;-74
2022/01/23 11:04:27;;;;;;;6.90;4.40;;;;;;;;;;5070509;28;20024;-74
2022/01/23 11:07:01;;;;;;;5.60;4.33;;;;;;;;;;5068906;28;20395;-74
2022/01/23 11:09:33;;;;;;;15.10;7.67;;;;;;;;;;5070506;28;20032;-74
2022/01/23 11:12:13;;;;;;;10.15;5.05;;;;;;;;;;5069131;28;20024;-73
2022/01/23 11:17:26;;;;;;;5.87;3.87;;;;;;;;;;5069755;28;20553;-74
2022/01/23 11:19:59;;;;;;;7.53;4.43;;;;;;;;;;5068982;28;20021;-73
2022/01/23 11:22:34;;;;;;;9.67;4.83;;;;;;;;;;5069105;28;20028;-74
2022/01/23 11:25:07;;;;;;;9.30;4.17;;;;;;;;;;5068640;28;20480;-74
2022/01/23 11:27:38;;;;;;;6.33;3.87;;;;;;;;;;5068883;28;20034;-74
2022/01/23 11:30:12;;;;;;;5.73;4.10;;;;;;;;;;5069137;28;20111;-73
2022/01/23 11:32:41;;;;;;;9.13;4.23;;;;;;;;;;5069835;28;20031;-74
2022/01/23 11:35:15;;;;;;;4.90;2.90;;;;;;;;;;5068817;28;20039;-73
2022/01/23 11:37:49;;;;;;;5.17;2.83;;;;;;;;;;5068360;28;20052;-74
2022/01/23 11:54:39;;;;;;;7.77;4.47;;;;;;;;;;5069888;28;20067;-74
2022/01/23 11:57:34;;;;;;;8.00;4.63;;;;;;;;;;5069238;28;20039;-74
2022/01/23 12:00:06;;;;;;;7.33;3.57;;;;;;;;;;5070532;28;20717;-74
2022/01/23 12:02:40;;;;;;;10.57;4.90;;;;;;;;;;5052828;28;20345;-73
2022/01/23 12:05:17;;;;;;;6.73;3.93;;;;;;;;;;5070444;28;20060;-73
2022/01/23 12:07:44;;;;;;;7.13;4.10;;;;;;;;;;5067975;28;20036;-74
2022/01/23 12:10:14;;;;;;;8.23;4.43;;;;;;;;;;5068079;28;20362;-73
2022/01/23 12:12:44;;;;;;;12.00;5.53;;;;;;;;;;5067835;28;20056;-74
2022/01/23 12:18:13;;;;;;;7.07;4.53;;;;;;;;;;5069465;28;20042;-74
2022/01/23 12:20:39;;;;;;;8.07;4.47;;;;;;;;;;5067542;28;20070;-74
2022/01/23 12:23:06;;;;;;;7.77;4.33;;;;;;;;;;5067969;28;20032;-74
2022/01/23 12:25:41;;;;;;;12.27;4.33;;;;;;;;;;5067907;28;20034;-74
2022/01/23 12:28:14;;;;;;;8.70;4.60;;;;;;;;;;5068427;28;20052;-74
2022/01/23 12:30:44;;;;;;;6.63;4.70;;;;;;;;;;5068968;28;20028;-74
2022/01/23 12:33:13;;;;;;;4.97;3.07;;;;;;;;;;5069859;28;20032;-74
2022/01/23 12:35:41;;;;;;;6.30;2.90;;;;;;;;;;5069242;28;20052;-73
2022/01/23 12:38:12;;;;;;;7.10;2.87;;;;;;;;;;5068225;28;20060;-72
2022/01/23 12:40:43;;;;;;;3.08;2.42;;;;;;;;;;5085374;28;20036;-74
2022/01/23 12:43:15;;;;;;;3.38;2.55;;;;;;;;;;5067932;28;20043;-74
2022/01/23 12:46:01;;;;;;;3.15;1.75;;;;;;;;;;5068635;28;20036;-74
2022/01/23 12:48:30;;;;;;;3.33;2.00;;;;;;;;;;5069959;28;20044;-73
2022/01/23 12:50:58;;;;;;;1.20;1.03;;;;;;;;;;5068067;28;20119;-73
2022/01/23 12:53:47;;;;;;;2.17;1.40;;;;;;;;;;5069537;28;20079;-74
2022/01/23 12:56:20;;;;;;;3.00;2.20;;;;;;;;;;5059701;28;20047;-75
2022/01/23 12:58:55;;;;;;;1.83;1.50;;;;;;;;;;5069319;28;20491;-74
2022/01/23 13:01:24;;;;;;;3.67;1.50;;;;;;;;;;5050955;28;20086;-74
2022/01/23 13:04:00;;;;;;;1.50;1.37;;;;;;;;;;5068755;28;20040;-74
2022/01/23 13:06:50;;;;;;;1.87;1.57;;;;;;;;;;5067639;28;20025;-74
2022/01/23 13:12:26;;;;;;;2.97;2.20;;;;;;;;;;5073329;28;20051;-74
2022/01/23 13:18:03;;;;;;;3.00;1.80;;;;;;;;;;5072705;28;20017;-75
2022/01/23 13:31:58;;;;;;;3.40;2.33;;;;;;;;;;5072821;28;20150;-73
2022/01/23 13:34:26;;;;;;;2.57;1.90;;;;;;;;;;5070935;28;20064;-75
2022/01/23 13:37:00;;;;;;;3.57;2.07;;;;;;;;;;5071827;28;20321;-72
2022/01/23 13:39:34;;;;;;;3.23;2.10;;;;;;;;;;5072447;28;20056;-74
2022/01/23 13:42:04;;;;;;;8.60;2.33;;;;;;;;;;5072365;28;20073;-74
2022/01/23 13:53:09;;;;;;;2.20;2.00;;;;;;;;;;5071941;28;20507;-74
2022/01/23 13:58:36;;;;;;;2.73;2.10;;;;;;;;;;5072376;28;19967;-74
2022/01/23 14:01:35;;;;;;;3.33;2.00;;;;;;;;;;5071696;28;20032;-74
2022/01/23 14:04:01;;;;;;;3.87;2.67;;;;;;;;;;5070524;28;20095;-74
2022/01/23 14:06:27;;;;;;;2.93;2.20;;;;;;;;;;5070558;28;20024;-74
2022/01/23 14:09:09;;;;;;;4.00;2.60;;;;;;;;;;5071840;28;20051;-73
2022/01/23 14:11:35;;;;;;;;;;;;;;;;;;5070931;28;20028;-73
2022/01/23 14:14:24;;;;;;;3.63;2.70;;;;;;;;;;5070454;28;20011;-75
2022/01/23 14:16:52;;;;;;;7.50;3.43;;;;;;;;;;5070276;28;20113;-74
2022/01/23 14:19:19;;;;;;;7.10;3.20;;;;;;;;;;5071185;28;20484;-73
2022/01/23 14:21:47;;;;;;;7.17;3.60;;;;;;;;;;5071486;28;20365;-74
2022/01/23 14:24:22;;;;;;;5.73;3.77;;;;;;;;;;5070013;28;20472;-75
2022/01/23 14:27:08;;;;;;;5.33;3.43;;;;;;;;;;5070059;28;20464;-73
2022/01/23 14:29:50;;;;;;;6.70;4.07;;;;;;;;;;5070152;28;20031;-74
2022/01/23 14:32:30;;;;;;;5.33;3.03;;;;;;;;;;5053373;28;20036;-75
2022/01/23 14:35:08;;;;;;;7.30;3.37;;;;;;;;;;5070448;28;20291;-74
2022/01/23 14:37:34;;;;;;;4.70;3.07;;;;;;;;;;5069814;28;20074;-74
2022/01/23 14:40:19;;;;;;;6.17;2.70;;;;;;;;;;5070296;28;20036;-73
2022/01/23 14:43:00;;;;;;;4.03;2.67;;;;;;;;;;5070800;28;20477;-73
2022/01/23 14:45:28;;;;;;;2.70;2.30;;;;;;;;;;5070751;28;20028;-74
2022/01/23 14:47:54;;;;;;;3.33;2.37;;;;;;;;;;5071029;28;20025;-73
2022/01/23 14:50:23;;;;;;;3.00;2.37;;;;;;;;;;5071249;28;20401;-74
2022/01/23 14:52:49;;;;;;;4.00;2.90;;;;;;;;;;5069691;28;20058;-74
2022/01/23 14:55:16;;;;;;;3.60;2.83;;;;;;;;;;5086425;28;20028;-74
2022/01/23 14:57:44;;;;;;;3.97;2.20;;;;;;;;;;5069571;28;20046;-74
2022/01/23 15:00:13;;;;;;;3.80;2.67;;;;;;;;;;5053434;28;20021;-74
2022/01/23 15:02:40;;;;;;;3.77;2.90;;;;;;;;;;5069465;28;20066;-76
2022/01/23 15:05:07;;;;;;;5.03;2.63;;;;;;;;;;5071192;28;20032;-75
2022/01/23 15:07:35;;;;;;;3.70;2.70;;;;;;;;;;5072261;28;20040;-74
2022/01/23 15:10:01;;;;;;;4.60;2.10;;;;;;;;;;5071661;28;20092;-75
2022/01/23 15:12:27;;;;;;;4.83;2.20;;;;;;;;;;5069494;28;20111;-75
2022/01/23 15:14:52;;;;;;;5.60;2.63;;;;;;;;;;5068928;28;20513;-74
2022/01/23 15:17:20;;;;;;;3.30;2.47;;;;;;;;;;5069374;28;20028;-74
2022/01/23 15:19:46;;;;;;;3.90;2.73;;;;;;;;;;5070177;28;20547;-73
2022/01/23 15:22:12;;;;;;;3.50;2.57;;;;;;;;;;5070557;28;20099;-74
2022/01/23 15:24:38;;;;;;;5.83;3.30;;;;;;;;;;5070727;28;20445;-74
2022/01/23 15:27:04;;;;;;;4.63;2.50;;;;;;;;;;5068940;28;20028;-74
2022/01/23 15:29:30;;;;;;;3.43;2.40;;;;;;;;;;5069104;28;20016;-75
2022/01/23 15:31:55;;;;;;;16.50;3.13;;;;;;;;;;5068006;28;20111;-74
2022/01/23 15:34:21;;;;;;;4.60;2.90;;;;;;;;;;5068675;28;20074;-74
2022/01/23 15:36:47;;;;;;;6.33;3.50;;;;;;;;;;5069763;28;20517;-74
2022/01/23 15:39:13;;;;;;;4.97;3.30;;;;;;;;;;5068576;28;20039;-74
2022/01/23 15:41:39;;;;;;;4.73;3.40;;;;;;;;;;5069879;28;20123;-75
2022/01/23 15:44:05;;;;;;;9.00;3.33;;;;;;;;;;5068065;28;20055;-74
2022/01/23 15:46:31;;;;;;;4.87;2.67;;;;;;;;;;5070053;28;20494;-75
2022/01/23 15:48:57;;;;;;;11.37;3.90;;;;;;;;;;5069761;28;20099;-74
2022/01/23 15:51:22;;;;;;;7.07;3.10;;;;;;;;;;5069857;28;20095;-75
2022/01/23 15:53:48;;;;;;;6.47;3.33;;;;;;;;;;5069744;28;20025;-75
2022/01/23 15:56:13;;;;;;;8.37;3.90;;;;;;;;;;5069951;28;20028;-75
2022/01/23 15:58:39;;;;;;;6.47;3.47;;;;;;;;;;5069741;28;20033;-73
2022/01/23 16:01:04;;;;;;;6.77;3.37;;;;;;;;;;5069521;28;20024;-74
2022/01/23 16:03:30;;;;;;;7.37;3.47;;;;;;;;;;5069765;28;20042;-75
2022/01/23 16:05:56;;;;;;;6.80;4.10;;;;;;;;;;5068225;28;20074;-74
2022/01/23 16:08:22;;;;;;;14.37;7.03;;;;;;;;;;5069853;28;20036;-73
2022/01/23 16:10:48;;;;;;;7.17;3.90;;;;;;;;;;5069996;28;20024;-76
2022/01/23 16:13:14;;;;;;;9.27;4.80;;;;;;;;;;5069993;28;20040;-74
2022/01/23 16:15:43;;;;;;;9.43;4.90;;;;;;;;;;5069750;28;20030;-74
2022/01/23 16:18:09;;;;;;;11.13;4.73;;;;;;;;;;5068413;28;20051;-75
2022/01/23 16:20:36;;;;;;;8.53;4.83;;;;;;;;;;5067943;28;20171;-73
2022/01/23 16:23:02;;;;;;;10.13;5.40;;;;;;;;;;5067846;28;20039;-75
2022/01/23 16:25:27;;;;;;;8.33;4.70;;;;;;;;;;5069395;28;20024;-75
2022/01/23 16:27:54;;;;;;;10.50;5.67;;;;;;;;;;5067870;28;20028;-73
2022/01/23 16:30:21;;;;;;;10.30;5.17;;;;;;;;;;5084797;28;20020;-74
2022/01/23 16:32:47;;;;;;;9.53;5.23;;;;;;;;;;5067793;28;20074;-73
2022/01/23 16:35:14;;;;;;;9.80;4.97;;;;;;;;;;5067922;28;20067;-74
2022/01/23 16:37:41;;;;;;;8.17;4.50;;;;;;;;;;5067934;28;20053;-74
2022/01/23 16:40:07;;;;;;;8.93;5.53;;;;;;;;;;5067512;28;20063;-75
2022/01/23 16:42:34;;;;;;;8.67;5.00;;;;;;;;;;5073233;28;20052;-74
2022/01/23 16:44:59;;;;;;;8.27;4.90;;;;;;;;;;5075666;28;20127;-73
2022/01/23 16:47:25;;;;;;;9.87;4.87;;;;;;;;;;5091618;28;20131;-74
2022/01/23 16:49:50;;;;;;;44.60;22.03;;;;;;;;;;5074395;28;20060;-73
2022/01/23 16:52:16;;;;;;;8.63;5.43;;;;;;;;;;5074688;28;20464;-73
2022/01/23 16:54:43;;;;;;;9.90;5.23;;;;;;;;;;5074652;28;20107;-73
2022/01/23 16:57:09;;;;;;;11.33;5.37;;;;;;;;;;5075826;28;20044;-72
2022/01/23 16:59:34;;;;;;;9.83;5.07;;;;;;;;;;5075493;28;20025;-74
2022/01/23 17:02:00;;;;;;;12.07;5.67;;;;;;;;;;5075641;28;20032;-73
2022/01/23 17:04:26;;;;;;;9.50;5.70;;;;;;;;;;5075730;28;20032;-74
2022/01/23 17:06:52;;;;;;;13.57;6.33;;;;;;;;;;5075810;28;20024;-73
2022/01/23 17:09:18;;;;;;;10.97;5.63;;;;;;;;;;5076236;28;20052;-73
2022/01/23 17:11:46;;;;;;;10.30;5.30;;;;;;;;;;5075803;28;20052;-74
2022/01/23 17:14:13;;;;;;;15.17;5.40;;;;;;;;;;5074155;28;20059;-75
2022/01/23 17:16:38;;;;;;;12.30;5.90;;;;;;;;;;5075802;28;20373;-74
2022/01/23 17:19:04;;;;;;;10.90;5.57;;;;;;;;;;5075214;28;20033;-76
2022/01/23 17:21:29;;;;;;;9.53;5.30;;;;;;;;;;5074484;28;20035;-74
2022/01/23 17:23:55;;;;;;;9.93;5.37;;;;;;;;;;5074563;28;20432;-74
2022/01/23 17:26:20;;;;;;;12.13;5.67;;;;;;;;;;5075501;28;20040;-74
2022/01/23 17:28:47;;;;;;;12.90;6.90;;;;;;;;;;5075667;28;20031;-73
2022/01/23 17:31:12;;;;;;;9.30;4.70;;;;;;;;;;5075594;28;20020;-74
2022/01/23 17:33:38;;;;;;;6.93;4.00;;;;;;;;;;5074477;28;20029;-75
2022/01/23 17:36:04;;;;;;;7.40;3.67;;;;;;;;;;5073977;28;20024;-74
2022/01/23 17:38:29;;;;;;;10.60;4.03;;;;;;;;;;5074234;28;20049;-75
2022/01/23 17:40:55;;;;;;;5.97;3.60;;;;;;;;;;5073941;28;20064;-74
2022/01/23 17:43:20;;;;;;;5.63;3.13;;;;;;;;;;5074356;28;20028;-74
2022/01/23 17:45:53;;;;;;;5.40;3.67;;;;;;;;;;5075693;28;20074;-75
2022/01/23 17:51:13;;;;;;;6.27;3.50;;;;;;;;;;5075490;28;20071;-74
2022/01/23 17:53:40;;;;;;;5.80;3.17;;;;;;;;;;5073575;28;20522;-73
2022/01/23 17:56:06;;;;;;;4.97;3.30;;;;;;;;;;5072139;28;20067;-76
2022/01/23 17:58:32;;;;;;;8.67;4.00;;;;;;;;;;5072306;28;20111;-75
2022/01/23 18:00:58;;;;;;;7.10;4.23;;;;;;;;;;5070554;28;20551;-75
2022/01/23 18:03:24;;;;;;;15.43;7.60;;;;;;;;;;5070611;28;20071;-74
2022/01/23 18:05:51;;;;;;;6.17;3.80;;;;;;;;;;5072366;28;20388;-74
2022/01/23 18:08:19;;;;;;;5.60;3.23;;;;;;;;;;5071674;28;20036;-75
2022/01/23 18:10:45;;;;;;;7.17;4.07;;;;;;;;;;5072011;28;20131;-74
2022/01/23 18:13:14;;;;;;;3.83;2.53;;;;;;;;;;5070566;28;20114;-74
2022/01/23 18:15:41;;;;;;;8.07;4.00;;;;;;;;;;5070616;28;20048;-76